Time;durP1;ratioP1;P1;durP2;ratioP2;P2;SDS_P1;SDS_P2;PMS_P1;PMS_P2;Temp;Humidity;BMP_temperature;BMP_pressure;BME280_temperature;BME280_humidity;BME280_pressure;Samples;Min_cycle;Max_cycle;Signal;HPM_P1;HPM_P2
2022/06/07 00:00:46;;;;;;;3.17;1.60;;;;;;;;;;6183869;28;20604;-80
2022/06/07 00:03:48;;;;;;;2.10;1.42;;;;;;;;;;6207651;28;20702;-80
2022/06/07 00:06:50;;;;;;;4.10;2.00;;;;;;;;;;6197586;28;20042;-78
2022/06/07 00:09:52;;;;;;;2.58;1.38;;;;;;;;;;6186700;28;20119;-79
2022/06/07 00:12:54;;;;;;;2.53;1.52;;;;;;;;;;6203575;28;20446;-80
2022/06/07 00:15:55;;;;;;;1.73;1.40;;;;;;;;;;6209083;28;20184;-79
2022/06/07 00:18:57;;;;;;;2.78;1.98;;;;;;;;;;6187810;28;20070;-80
2022/06/07 00:21:59;;;;;;;2.63;1.35;;;;;;;;;;6165998;28;20051;-79
2022/06/07 00:25:03;;;;;;;2.90;1.55;;;;;;;;;;6210201;28;20117;-80
2022/06/07 00:28:06;;;;;;;1.45;1.30;;;;;;;;;;6212652;28;20048;-80
2022/06/07 00:31:08;;;;;;;1.80;1.70;;;;;;;;;;6205341;28;20515;-80
2022/06/07 00:34:10;;;;;;;1.85;1.52;;;;;;;;;;6209804;28;20514;-80
2022/06/07 00:37:11;;;;;;;2.35;1.60;;;;;;;;;;6199774;28;20065;-79
2022/06/07 00:40:14;;;;;;;2.47;1.52;;;;;;;;;;6187330;28;20042;-80
2022/06/07 00:43:15;;;;;;;2.80;1.60;;;;;;;;;;6210996;28;20078;-80
2022/06/07 00:46:17;;;;;;;3.47;1.55;;;;;;;;;;6163500;28;20057;-80
2022/06/07 00:49:21;;;;;;;2.78;1.55;;;;;;;;;;6196362;28;20122;-79
2022/06/07 00:52:25;;;;;;;2.35;1.55;;;;;;;;;;6192181;28;20145;-80
2022/06/07 00:55:27;;;;;;;3.85;1.58;;;;;;;;;;6193663;28;20419;-80
2022/06/07 00:58:36;;;;;;;1.80;1.40;;;;;;;;;;6199863;28;20053;-79
2022/06/07 01:01:40;;;;;;;3.15;1.65;;;;;;;;;;6210334;28;20049;-80
2022/06/07 01:04:42;;;;;;;1.67;1.58;;;;;;;;;;6183658;28;20050;-80
2022/06/07 01:11:05;;;;;;;2.50;1.40;;;;;;;;;;6211747;28;20049;-79
2022/06/07 01:14:08;;;;;;;2.05;1.50;;;;;;;;;;6189445;28;20543;-79
2022/06/07 01:17:11;;;;;;;1.45;1.30;;;;;;;;;;6211205;28;20049;-78
2022/06/07 01:20:13;;;;;;;1.90;1.52;;;;;;;;;;6197849;28;20132;-80
2022/06/07 01:23:14;;;;;;;3.47;1.27;;;;;;;;;;6211878;28;20048;-80
2022/06/07 01:26:17;;;;;;;2.40;1.65;;;;;;;;;;6212193;28;20045;-79
2022/06/07 01:29:19;;;;;;;1.85;1.65;;;;;;;;;;6200154;28;20053;-79
2022/06/07 01:32:22;;;;;;;1.83;1.40;;;;;;;;;;6214206;28;20450;-79
2022/06/07 01:35:23;;;;;;;2.88;1.40;;;;;;;;;;6197764;28;20042;-79
2022/06/07 01:38:25;;;;;;;2.88;1.58;;;;;;;;;;6188389;28;20080;-79
2022/06/07 01:44:49;;;;;;;3.28;1.60;;;;;;;;;;6194865;28;20039;-80
2022/06/07 01:47:52;;;;;;;1.85;1.42;;;;;;;;;;6208862;28;20046;-79
2022/06/07 01:51:03;;;;;;;2.25;1.58;;;;;;;;;;6193748;28;20129;-79
2022/06/07 01:54:06;;;;;;;2.03;1.80;;;;;;;;;;6195508;28;20502;-80
2022/06/07 01:57:08;;;;;;;1.88;1.60;;;;;;;;;;6208727;28;20054;-80
2022/06/07 02:00:11;;;;;;;2.15;1.60;;;;;;;;;;6202149;28;20058;-81
2022/06/07 02:03:15;;;;;;;2.20;1.58;;;;;;;;;;6207656;28;20062;-80
2022/06/07 02:06:17;;;;;;;1.50;1.40;;;;;;;;;;6203002;28;20475;-79
2022/06/07 02:09:21;;;;;;;1.92;1.73;;;;;;;;;;6202083;28;20041;-79
2022/06/07 02:12:23;;;;;;;2.47;1.52;;;;;;;;;;6204686;28;20042;-80
2022/06/07 02:15:25;;;;;;;3.40;2.00;;;;;;;;;;6213664;28;20045;-80
2022/06/07 02:18:27;;;;;;;1.60;1.50;;;;;;;;;;6189600;28;20132;-80
2022/06/07 02:21:41;;;;;;;4.65;2.00;;;;;;;;;;6192689;28;20046;-79
2022/06/07 02:24:44;;;;;;;1.92;1.60;;;;;;;;;;6192445;28;20049;-79
2022/06/07 02:27:46;;;;;;;1.90;1.80;;;;;;;;;;6198986;28;20168;-81
2022/06/07 02:30:47;;;;;;;2.83;1.75;;;;;;;;;;6208241;28;20041;-80
2022/06/07 02:33:49;;;;;;;2.53;1.90;;;;;;;;;;6192879;28;20069;-80
2022/06/07 02:36:55;;;;;;;2.80;1.73;;;;;;;;;;6159153;28;20047;-80
2022/06/07 02:39:58;;;;;;;5.07;1.77;;;;;;;;;;6196757;28;20042;-80
2022/06/07 02:43:01;;;;;;;1.70;1.60;;;;;;;;;;6196653;28;20567;-80
2022/06/07 02:46:03;;;;;;;;;;;;;;;;;;6187531;28;20129;-80
2022/06/07 02:49:05;;;;;;;2.50;1.67;;;;;;;;;;6173226;28;19921;-80
2022/06/07 02:52:08;;;;;;;2.97;1.90;;;;;;;;;;6167013;28;20042;-79
2022/06/07 02:55:18;;;;;;;4.05;2.03;;;;;;;;;;6204392;28;20038;-79
2022/06/07 02:58:21;;;;;;;2.20;2.00;;;;;;;;;;6199241;28;20422;-80
2022/06/07 03:01:23;;;;;;;2.20;1.90;;;;;;;;;;6205963;28;20272;-80
2022/06/07 03:04:25;;;;;;;2.08;1.73;;;;;;;;;;6181187;28;20060;-79
2022/06/07 03:07:27;;;;;;;4.32;1.95;;;;;;;;;;6178456;28;20046;-80
2022/06/07 03:10:30;;;;;;;5.03;2.10;;;;;;;;;;6181003;28;20125;-79
2022/06/07 03:13:32;;;;;;;2.67;2.10;;;;;;;;;;6196678;28;20047;-80
2022/06/07 03:16:36;;;;;;;2.72;1.80;;;;;;;;;;6212777;28;20046;-81
2022/06/07 03:19:39;;;;;;;3.17;1.80;;;;;;;;;;6207359;28;20042;-80
2022/06/07 03:22:42;;;;;;;2.78;1.83;;;;;;;;;;6207635;28;20492;-79
2022/06/07 03:25:45;;;;;;;;;;;;;;;;;;6165372;28;20092;-80
2022/06/07 03:28:48;;;;;;;3.47;2.35;;;;;;;;;;6208144;28;19922;-80
2022/06/07 03:31:51;;;;;;;2.25;1.75;;;;;;;;;;6188763;28;20997;-80
2022/06/07 03:34:59;;;;;;;2.03;1.83;;;;;;;;;;6198808;28;20528;-79
2022/06/07 03:38:02;;;;;;;;;;;;;;;;;;6181071;28;20043;-78
2022/06/07 03:41:05;;;;;;;3.13;2.20;;;;;;;;;;6196718;28;19922;-78
2022/06/07 03:44:08;;;;;;;3.28;1.95;;;;;;;;;;6192353;28;20042;-77
2022/06/07 03:47:18;;;;;;;2.28;2.05;;;;;;;;;;6194067;28;20119;-77
2022/06/07 03:50:21;;;;;;;2.53;2.20;;;;;;;;;;6188120;28;20145;-78
2022/06/07 03:53:24;;;;;;;2.30;2.10;;;;;;;;;;6181459;28;20092;-78
2022/06/07 03:56:25;;;;;;;3.78;1.90;;;;;;;;;;6173361;28;20052;-80
2022/06/07 03:59:30;;;;;;;3.15;2.30;;;;;;;;;;6186275;28;20130;-78
2022/06/07 04:02:33;;;;;;;2.90;2.28;;;;;;;;;;6185805;28;20042;-78
2022/06/07 04:05:40;;;;;;;2.50;2.30;;;;;;;;;;6194082;28;20038;-77
2022/06/07 04:08:43;;;;;;;3.80;2.38;;;;;;;;;;6196493;28;20048;-78
2022/06/07 04:11:47;;;;;;;5.15;2.50;;;;;;;;;;6188614;28;20071;-78
2022/06/07 04:14:49;;;;;;;2.63;2.30;;;;;;;;;;6184513;28;20103;-78
2022/06/07 04:17:53;;;;;;;2.97;2.38;;;;;;;;;;6196694;28;20458;-78
2022/06/07 04:21:00;;;;;;;2.42;2.13;;;;;;;;;;6170886;28;20042;-79
2022/06/07 04:24:04;;;;;;;3.35;2.17;;;;;;;;;;6173262;28;20129;-78
2022/06/07 04:27:09;;;;;;;2.78;1.95;;;;;;;;;;6185586;28;20363;-78
2022/06/07 04:30:13;;;;;;;2.53;1.95;;;;;;;;;;6197264;28;20041;-78
2022/06/07 04:33:18;;;;;;;4.35;2.17;;;;;;;;;;6173953;28;20047;-78
2022/06/07 04:36:26;;;;;;;2.80;1.90;;;;;;;;;;6181241;28;20069;-79
2022/06/07 04:39:30;;;;;;;2.17;1.90;;;;;;;;;;6204225;28;20582;-79
2022/06/07 04:42:41;;;;;;;3.72;2.30;;;;;;;;;;6204048;28;20518;-79
2022/06/07 04:45:49;;;;;;;3.58;2.40;;;;;;;;;;6205831;28;20053;-80
2022/06/07 04:48:56;;;;;;;3.65;1.90;;;;;;;;;;6191235;28;20054;-78
2022/06/07 04:52:02;;;;;;;2.80;1.88;;;;;;;;;;6201272;28;20073;-79
2022/06/07 04:55:23;;;;;;;3.05;2.10;;;;;;;;;;6208421;28;20046;-79
2022/06/07 04:58:27;;;;;;;2.38;2.13;;;;;;;;;;6193584;28;20539;-79
2022/06/07 05:01:35;;;;;;;3.83;2.38;;;;;;;;;;6204389;28;20072;-79
2022/06/07 05:04:41;;;;;;;2.10;1.90;;;;;;;;;;6203242;28;20046;-80
2022/06/07 05:07:54;;;;;;;2.80;2.05;;;;;;;;;;6178442;28;20051;-79
2022/06/07 05:10:59;;;;;;;4.30;1.95;;;;;;;;;;6183622;28;20065;-79
2022/06/07 05:14:03;;;;;;;2.65;1.63;;;;;;;;;;6202854;28;20049;-78
2022/06/07 05:17:06;;;;;;;2.53;2.33;;;;;;;;;;6182268;28;20045;-79
2022/06/07 05:20:12;;;;;;;2.65;2.08;;;;;;;;;;6199448;28;20042;-79
2022/06/07 05:23:16;;;;;;;3.10;2.80;;;;;;;;;;6203237;28;20042;-78
2022/06/07 05:26:33;;;;;;;3.20;2.20;;;;;;;;;;6177787;28;20078;-79
2022/06/07 05:29:47;;;;;;;2.22;1.88;;;;;;;;;;6197253;28;20046;-79
2022/06/07 05:32:56;;;;;;;2.05;1.63;;;;;;;;;;6178734;28;20057;-80
2022/06/07 05:36:13;;;;;;;3.35;1.77;;;;;;;;;;6205125;28;20042;-79
2022/06/07 05:39:23;;;;;;;3.88;1.80;;;;;;;;;;6208338;28;20396;-78
2022/06/07 05:42:27;;;;;;;2.42;1.90;;;;;;;;;;6201400;28;20052;-79
2022/06/07 05:45:31;;;;;;;2.15;1.40;;;;;;;;;;6171137;28;20050;-79
2022/06/07 05:48:36;;;;;;;3.42;1.60;;;;;;;;;;6208980;28;20139;-79
2022/06/07 05:51:44;;;;;;;1.80;1.70;;;;;;;;;;6194029;28;20058;-79
2022/06/07 05:54:45;;;;;;;2.65;1.63;;;;;;;;;;6181996;28;20058;-78
2022/06/07 05:57:51;;;;;;;3.47;1.40;;;;;;;;;;6186962;28;20046;-78
2022/06/07 06:00:53;;;;;;;2.17;1.50;;;;;;;;;;6199914;28;20041;-79
2022/06/07 06:04:00;;;;;;;2.00;1.63;;;;;;;;;;6184706;28;20058;-78
2022/06/07 06:07:08;;;;;;;2.08;1.60;;;;;;;;;;6189608;28;20117;-79
2022/06/07 06:10:19;;;;;;;4.20;1.50;;;;;;;;;;6166589;28;20565;-79
2022/06/07 06:13:27;;;;;;;1.83;1.45;;;;;;;;;;6203301;28;20419;-79
2022/06/07 06:16:31;;;;;;;2.70;1.50;;;;;;;;;;6205428;28;20554;-79
2022/06/07 06:19:33;;;;;;;;;;;;;;;;;;6218265;28;20133;-78
2022/06/07 06:22:37;;;;;;;1.38;1.27;;;;;;;;;;6217998;28;19932;-79
2022/06/07 06:25:42;;;;;;;2.25;1.17;;;;;;;;;;6212841;28;20131;-79
2022/06/07 06:28:46;;;;;;;1.90;1.38;;;;;;;;;;6203147;28;20043;-78
2022/06/07 06:31:50;;;;;;;1.63;1.30;;;;;;;;;;6211797;28;20050;-79
2022/06/07 06:34:52;;;;;;;2.67;1.10;;;;;;;;;;6190194;28;20125;-79
2022/06/07 06:37:58;;;;;;;1.10;1.00;;;;;;;;;;6204470;28;20046;-77
2022/06/07 06:41:08;;;;;;;;;;;;;;;;;;6209218;28;20053;-78
2022/06/07 06:44:10;;;;;;;2.50;1.08;;;;;;;;;;6208911;28;19951;-78
2022/06/07 06:47:14;;;;;;;1.35;1.25;;;;;;;;;;6195076;28;20281;-77
2022/06/07 06:50:16;;;;;;;2.70;1.40;;;;;;;;;;6169449;28;20500;-78
2022/06/07 06:53:19;;;;;;;1.20;1.10;;;;;;;;;;6205331;28;20037;-78
2022/06/07 06:56:25;;;;;;;1.52;1.00;;;;;;;;;;6205784;28;20046;-78
2022/06/07 06:59:27;;;;;;;;;;;;;;;;;;6201561;28;20093;-77
2022/06/07 07:02:33;;;;;;;3.33;1.02;;;;;;;;;;6202471;28;19926;-78
2022/06/07 07:05:50;;;;;;;2.35;1.02;;;;;;;;;;6188487;28;20502;-78
2022/06/07 07:08:54;;;;;;;1.17;0.93;;;;;;;;;;6206636;28;20116;-78
2022/06/07 07:11:58;;;;;;;2.40;1.15;;;;;;;;;;6190255;28;20585;-77
2022/06/07 07:15:18;;;;;;;1.58;0.90;;;;;;;;;;6211320;28;20071;-78
2022/06/07 07:18:31;;;;;;;1.42;1.00;;;;;;;;;;6211197;28;20038;-78
2022/06/07 07:21:36;;;;;;;1.93;1.00;;;;;;;;;;6190223;28;20058;-78
2022/06/07 07:24:42;;;;;;;0.88;0.88;;;;;;;;;;6203440;28;20084;-77
2022/06/07 07:27:47;;;;;;;1.35;1.00;;;;;;;;;;6207373;28;20046;-78
2022/06/07 07:30:57;;;;;;;1.80;0.80;;;;;;;;;;6202686;28;20038;-78
2022/06/07 07:34:08;;;;;;;1.33;1.05;;;;;;;;;;6198573;28;20507;-78
2022/06/07 07:37:11;;;;;;;2.22;0.93;;;;;;;;;;6200156;28;20100;-79
2022/06/07 07:40:14;;;;;;;;;;;;;;;;;;6211240;28;20076;-79
2022/06/07 07:43:17;;;;;;;3.30;0.82;;;;;;;;;;6209085;28;19925;-79
2022/06/07 07:46:21;;;;;;;2.33;0.82;;;;;;;;;;6203351;28;20385;-79
2022/06/07 07:49:23;;;;;;;1.92;0.77;;;;;;;;;;6202204;28;20525;-78
2022/06/07 07:52:25;;;;;;;2.17;0.83;;;;;;;;;;6200934;28;20042;-78
2022/06/07 07:55:33;;;;;;;2.22;0.90;;;;;;;;;;6200665;28;20433;-77
2022/06/07 07:58:38;;;;;;;0.93;0.80;;;;;;;;;;6211325;28;20058;-79
2022/06/07 08:01:41;;;;;;;1.77;0.95;;;;;;;;;;6199300;28;20041;-79
2022/06/07 08:04:44;;;;;;;0.70;0.70;;;;;;;;;;6203941;28;20420;-79
2022/06/07 08:07:48;;;;;;;1.58;0.70;;;;;;;;;;6197920;28;20065;-79
2022/06/07 08:10:58;;;;;;;1.10;0.63;;;;;;;;;;6189981;28;22773;-79
2022/06/07 08:14:02;;;;;;;0.83;0.60;;;;;;;;;;6203373;28;20053;-79
2022/06/07 08:17:04;;;;;;;2.20;0.77;;;;;;;;;;6198813;28;20208;-80
2022/06/07 08:20:06;;;;;;;1.90;0.80;;;;;;;;;;6198743;28;20125;-78
2022/06/07 08:23:10;;;;;;;1.52;0.60;;;;;;;;;;6196611;28;20167;-79
2022/06/07 08:26:11;;;;;;;2.38;0.70;;;;;;;;;;6200049;28;20049;-80
2022/06/07 08:29:18;;;;;;;1.27;0.98;;;;;;;;;;6193665;28;20046;-80
2022/06/07 08:32:20;;;;;;;1.38;0.70;;;;;;;;;;6192671;28;20656;-79
2022/06/07 08:38:42;;;;;;;1.23;0.57;;;;;;;;;;6173479;28;20070;-80
2022/06/07 08:41:49;;;;;;;0.70;0.70;;;;;;;;;;6208112;28;20657;-79
2022/06/07 08:44:57;;;;;;;1.83;0.60;;;;;;;;;;6200702;28;20042;-78
2022/06/07 08:48:06;;;;;;;2.05;0.77;;;;;;;;;;6212952;28;20072;-80
2022/06/07 08:51:29;;;;;;;0.60;0.60;;;;;;;;;;6199460;28;20037;-80
2022/06/07 08:54:36;;;;;;;0.70;0.65;;;;;;;;;;6208872;28;20043;-79
2022/06/07 08:57:38;;;;;;;2.22;0.82;;;;;;;;;;6219218;28;20044;-79
2022/06/07 09:00:42;;;;;;;0.93;0.70;;;;;;;;;;6209152;28;20085;-78
2022/06/07 09:04:04;;;;;;;2.30;0.80;;;;;;;;;;6217922;28;20515;-79
2022/06/07 09:07:15;;;;;;;0.60;0.40;;;;;;;;;;6168681;28;20108;-79
2022/06/07 09:13:44;;;;;;;0.85;0.60;;;;;;;;;;6201150;28;20130;-78
2022/06/07 09:16:47;;;;;;;0.77;0.50;;;;;;;;;;6202007;28;20106;-79
2022/06/07 09:19:49;;;;;;;0.55;0.50;;;;;;;;;;6209708;28;20046;-79
2022/06/07 09:22:53;;;;;;;1.88;0.60;;;;;;;;;;6171312;28;20047;-78
2022/06/07 09:26:11;;;;;;;0.88;0.57;;;;;;;;;;6207532;28;20475;-79
2022/06/07 09:29:20;;;;;;;0.55;0.50;;;;;;;;;;6206531;28;20519;-80
2022/06/07 09:32:26;;;;;;;1.30;0.60;;;;;;;;;;6209107;28;20070;-78
2022/06/07 09:35:40;;;;;;;1.58;0.60;;;;;;;;;;6202078;28;20148;-80
2022/06/07 09:38:47;;;;;;;1.05;0.55;;;;;;;;;;6206531;28;20052;-79
2022/06/07 09:41:54;;;;;;;1.52;0.60;;;;;;;;;;6199599;28;20130;-79
2022/06/07 09:45:02;;;;;;;2.08;0.85;;;;;;;;;;6208828;28;20056;-78
2022/06/07 09:48:25;;;;;;;0.40;0.40;;;;;;;;;;6209902;28;20142;-77
2022/06/07 09:51:37;;;;;;;0.77;0.60;;;;;;;;;;6204664;28;20108;-79
2022/06/07 09:54:42;;;;;;;1.52;0.60;;;;;;;;;;6196638;28;20261;-78
2022/06/07 09:58:13;;;;;;;1.10;0.60;;;;;;;;;;6208289;28;20116;-78
2022/06/07 10:01:27;;;;;;;0.50;0.47;;;;;;;;;;6201525;28;20037;-78
2022/06/07 10:04:52;;;;;;;1.88;0.50;;;;;;;;;;6208476;28;20046;-78
2022/06/07 10:08:18;;;;;;;2.50;0.60;;;;;;;;;;6199063;28;20052;-79
2022/06/07 10:11:32;;;;;;;1.65;0.52;;;;;;;;;;6203616;28;20054;-77
2022/06/07 10:14:37;;;;;;;1.27;0.52;;;;;;;;;;6202623;28;20176;-79
2022/06/07 10:18:10;;;;;;;1.05;0.60;;;;;;;;;;6201959;28;20057;-79
2022/06/07 10:21:26;;;;;;;0.60;0.60;;;;;;;;;;6201330;28;20411;-78
2022/06/07 10:24:37;;;;;;;1.73;0.65;;;;;;;;;;6204578;28;20057;-78
2022/06/07 10:28:06;;;;;;;2.50;0.60;;;;;;;;;;6205083;28;20129;-78
2022/06/07 10:31:24;;;;;;;1.58;0.60;;;;;;;;;;6203614;28;20424;-78
2022/06/07 10:34:49;;;;;;;0.77;0.50;;;;;;;;;;6208278;28;20559;-78
2022/06/07 10:38:35;;;;;;;1.42;0.52;;;;;;;;;;6208405;28;20797;-78
2022/06/07 10:41:43;;;;;;;1.42;0.63;;;;;;;;;;6215334;28;20052;-78
2022/06/07 10:45:16;;;;;;;1.95;0.50;;;;;;;;;;6202881;28;20132;-78
2022/06/07 10:48:24;;;;;;;0.88;0.43;;;;;;;;;;6206594;28;20052;-78
2022/06/07 10:55:17;;;;;;;1.02;0.73;;;;;;;;;;6202589;28;20042;-79
2022/06/07 10:58:28;;;;;;;1.63;0.50;;;;;;;;;;6218355;28;20393;-79
2022/06/07 11:01:45;;;;;;;1.92;0.50;;;;;;;;;;6212980;28;20049;-79
2022/06/07 11:12:24;;;;;;;2.00;0.45;;;;;;;;;;6209998;28;21820;-79
2022/06/07 11:15:40;;;;;;;1.35;0.50;;;;;;;;;;6193894;28;20054;-79
2022/06/07 11:18:42;;;;;;;2.90;0.50;;;;;;;;;;6210562;28;20034;-80
2022/06/07 11:21:47;;;;;;;0.60;0.40;;;;;;;;;;6196533;28;20078;-79
2022/06/07 11:25:01;;;;;;;2.42;0.50;;;;;;;;;;6211926;28;20415;-79
2022/06/07 11:28:17;;;;;;;1.10;0.45;;;;;;;;;;6208373;28;20153;-79
2022/06/07 11:31:44;;;;;;;0.80;0.60;;;;;;;;;;6212049;28;20045;-79
2022/06/07 11:34:46;;;;;;;3.13;0.60;;;;;;;;;;6202870;28;20045;-79
2022/06/07 11:38:16;;;;;;;1.38;0.70;;;;;;;;;;6209724;28;20416;-80
2022/06/07 11:41:44;;;;;;;1.38;0.68;;;;;;;;;;6193063;28;20058;-78
2022/06/07 11:45:18;;;;;;;1.75;0.60;;;;;;;;;;6183854;28;20042;-79
2022/06/07 11:48:23;;;;;;;0.98;0.70;;;;;;;;;;6212671;28;20049;-79
2022/06/07 11:51:25;;;;;;;2.05;0.88;;;;;;;;;;6174846;28;20045;-79
2022/06/07 11:54:31;;;;;;;1.10;0.73;;;;;;;;;;6206909;28;20038;-80
2022/06/07 11:57:38;;;;;;;1.05;0.60;;;;;;;;;;6210498;28;20046;-79
2022/06/07 12:00:44;;;;;;;2.63;0.70;;;;;;;;;;6175789;28;20138;-79
2022/06/07 12:04:25;;;;;;;0.63;0.60;;;;;;;;;;6218761;28;20176;-78
2022/06/07 12:07:44;;;;;;;0.52;0.50;;;;;;;;;;6178066;28;20050;-77
2022/06/07 12:11:20;;;;;;;1.48;0.52;;;;;;;;;;6192115;28;20034;-81
2022/06/07 12:14:34;;;;;;;1.92;0.70;;;;;;;;;;6191849;28;20061;-81
2022/06/07 12:17:35;;;;;;;0.93;0.68;;;;;;;;;;6198707;28;20046;-80
2022/06/07 12:20:40;;;;;;;0.95;0.60;;;;;;;;;;6199944;28;20046;-79
2022/06/07 12:23:48;;;;;;;0.80;0.50;;;;;;;;;;6189024;28;20043;-80
2022/06/07 12:26:51;;;;;;;0.60;0.60;;;;;;;;;;6220282;28;20053;-81
2022/06/07 12:29:55;;;;;;;0.70;0.70;;;;;;;;;;6204431;28;20117;-80
2022/06/07 12:33:21;;;;;;;11.40;10.60;;;;;;;;;;6205317;28;20381;-80
2022/06/07 12:36:28;;;;;;;1.27;0.60;;;;;;;;;;6202372;28;20522;-79
2022/06/07 12:39:31;;;;;;;1.90;1.10;;;;;;;;;;6208588;28;20038;-79
2022/06/07 12:42:45;;;;;;;2.53;0.88;;;;;;;;;;6205382;28;20066;-79
2022/06/07 12:46:06;;;;;;;1.88;0.95;;;;;;;;;;6207187;28;20061;-80
2022/06/07 12:49:30;;;;;;;1.73;0.80;;;;;;;;;;6173037;28;20107;-79
2022/06/07 12:52:32;;;;;;;1.45;0.98;;;;;;;;;;6195881;28;20052;-77
2022/06/07 12:55:37;;;;;;;0.73;0.57;;;;;;;;;;6204547;28;20396;-80
2022/06/07 12:58:45;;;;;;;2.05;0.70;;;;;;;;;;6200730;28;20046;-79
2022/06/07 13:01:49;;;;;;;1.05;0.60;;;;;;;;;;6197515;28;20045;-78
2022/06/07 13:04:54;;;;;;;1.45;0.50;;;;;;;;;;6192142;28;20080;-77
2022/06/07 13:07:59;;;;;;;0.95;0.70;;;;;;;;;;6193215;28;20103;-79
2022/06/07 13:11:04;;;;;;;3.17;0.70;;;;;;;;;;6177492;28;20039;-80
2022/06/07 13:14:06;;;;;;;1.42;0.95;;;;;;;;;;6200991;28;20053;-80
2022/06/07 13:17:26;;;;;;;1.58;0.82;;;;;;;;;;6201677;28;20046;-79
2022/06/07 13:20:38;;;;;;;0.60;0.60;;;;;;;;;;6205837;28;20120;-78
2022/06/07 13:23:42;;;;;;;0.82;0.60;;;;;;;;;;6211247;28;20100;-80
2022/06/07 13:26:47;;;;;;;1.95;0.77;;;;;;;;;;6188551;28;20042;-78
2022/06/07 13:29:48;;;;;;;1.67;0.70;;;;;;;;;;6182074;28;20051;-79
2022/06/07 13:33:01;;;;;;;0.75;0.75;;;;;;;;;;6207190;28;20448;-80
2022/06/07 13:36:26;;;;;;;1.02;0.80;;;;;;;;;;6206293;28;20053;-79
2022/06/07 13:39:29;;;;;;;3.28;0.80;;;;;;;;;;6205996;28;20046;-80
2022/06/07 13:42:35;;;;;;;1.58;0.73;;;;;;;;;;6204389;28;20527;-79
2022/06/07 13:45:46;;;;;;;1.55;0.70;;;;;;;;;;6180536;28;20054;-80
2022/06/07 13:56:05;;;;;;;1.00;0.95;;;;;;;;;;6176881;28;20197;-78
2022/06/07 13:59:11;;;;;;;1.50;0.95;;;;;;;;;;6199732;28;20050;-79
2022/06/07 14:02:12;;;;;;;1.27;0.90;;;;;;;;;;6171283;28;21007;-80
2022/06/07 14:05:30;;;;;;;1.15;1.02;;;;;;;;;;6189394;28;20049;-78
2022/06/07 14:08:32;;;;;;;2.67;0.90;;;;;;;;;;6204805;28;20078;-76
2022/06/07 14:11:35;;;;;;;1.50;0.80;;;;;;;;;;6201974;28;20042;-77
2022/06/07 14:14:37;;;;;;;3.45;0.95;;;;;;;;;;6196597;28;20046;-78
2022/06/07 14:17:41;;;;;;;1.98;1.00;;;;;;;;;;6198802;28;20046;-78
2022/06/07 14:20:47;;;;;;;1.20;1.00;;;;;;;;;;6159403;28;20069;-76
2022/06/07 14:23:48;;;;;;;1.67;1.08;;;;;;;;;;6166036;28;20054;-77
2022/06/07 14:26:51;;;;;;;3.97;1.10;;;;;;;;;;6175273;28;20073;-77
2022/06/07 14:29:53;;;;;;;2.10;0.90;;;;;;;;;;6157393;28;20047;-77
2022/06/07 14:32:57;;;;;;;3.00;1.00;;;;;;;;;;6171758;28;20050;-77
2022/06/07 14:35:59;;;;;;;2.80;0.90;;;;;;;;;;6179349;28;20054;-78
2022/06/07 14:39:00;;;;;;;2.53;0.83;;;;;;;;;;6210758;28;20050;-77
2022/06/07 14:42:02;;;;;;;2.00;0.70;;;;;;;;;;6184053;28;20050;-77
2022/06/07 14:45:04;;;;;;;2.23;0.80;;;;;;;;;;6207856;28;20045;-77
2022/06/07 14:48:07;;;;;;;1.98;0.82;;;;;;;;;;6212093;28;20131;-77
2022/06/07 14:51:18;;;;;;;2.55;1.05;;;;;;;;;;6184269;28;20199;-78
2022/06/07 14:54:25;;;;;;;1.30;0.80;;;;;;;;;;6201737;28;20034;-78
2022/06/07 14:57:28;;;;;;;4.00;0.80;;;;;;;;;;6203888;28;20042;-77
2022/06/07 15:00:29;;;;;;;;;;;;;;;;;;6167337;28;20805;-80
2022/06/07 15:03:31;;;;;;;1.98;0.73;;;;;;;;;;6206311;28;19929;-80
2022/06/07 15:06:36;;;;;;;3.75;1.00;;;;;;;;;;6162963;28;20252;-78
2022/06/07 15:09:38;;;;;;;1.67;1.10;;;;;;;;;;6186654;28;20117;-80
2022/06/07 15:12:39;;;;;;;2.60;1.10;;;;;;;;;;6181770;28;20193;-78
2022/06/07 15:15:42;;;;;;;1.15;1.05;;;;;;;;;;6202207;28;20060;-79
2022/06/07 15:18:45;;;;;;;4.25;1.30;;;;;;;;;;6193816;28;20730;-79
2022/06/07 15:21:49;;;;;;;2.33;1.30;;;;;;;;;;6193720;28;20058;-80
2022/06/07 15:24:51;;;;;;;1.77;1.40;;;;;;;;;;6207760;28;20105;-79
2022/06/07 15:27:52;;;;;;;1.92;1.40;;;;;;;;;;6211235;28;20133;-81
2022/06/07 15:30:55;;;;;;;1.90;1.50;;;;;;;;;;6196727;28;20136;-82
2022/06/07 15:33:59;;;;;;;3.72;1.50;;;;;;;;;;6196527;28;20043;-82
2022/06/07 15:37:01;;;;;;;3.72;1.58;;;;;;;;;;6177014;28;20066;-82
2022/06/07 15:40:06;;;;;;;4.00;1.42;;;;;;;;;;6207993;28;20132;-84
2022/06/07 15:43:10;;;;;;;3.83;1.40;;;;;;;;;;6202702;28;20101;-84
2022/06/07 15:46:11;;;;;;;1.98;1.73;;;;;;;;;;6202717;28;20053;-82
2022/06/07 15:49:13;;;;;;;1.98;1.70;;;;;;;;;;6183358;28;20114;-84
2022/06/07 15:52:15;;;;;;;4.68;1.70;;;;;;;;;;6196538;28;20081;-83
2022/06/07 15:55:17;;;;;;;3.17;1.50;;;;;;;;;;6199932;28;20508;-82
2022/06/07 16:01:40;;;;;;;2.78;1.83;;;;;;;;;;6191319;28;20087;-82
2022/06/07 16:04:42;;;;;;;1.92;1.80;;;;;;;;;;6200075;28;20048;-81
2022/06/07 16:07:44;;;;;;;2.22;1.80;;;;;;;;;;6194304;28;20086;-83
2022/06/07 16:10:46;;;;;;;3.63;2.00;;;;;;;;;;6201532;28;20049;-82
2022/06/07 16:13:48;;;;;;;2.67;1.83;;;;;;;;;;6198323;28;20066;-82
2022/06/07 16:16:50;;;;;;;3.08;2.13;;;;;;;;;;6201558;28;20045;-83
2022/06/07 16:19:58;;;;;;;3.92;2.15;;;;;;;;;;6202113;28;20081;-83
2022/06/07 16:23:01;;;;;;;;;;;;;;;;;;6171153;28;20058;-82
2022/06/07 16:26:02;;;;;;;2.30;2.10;;;;;;;;;;6212657;28;20515;-84
2022/06/07 16:35:59;;;;;;;3.17;1.70;;;;;;;;;;6182459;28;20110;-82
2022/06/07 16:39:04;;;;;;;2.22;1.50;;;;;;;;;;6208082;28;20163;-83
2022/06/07 16:42:05;;;;;;;4.88;1.80;;;;;;;;;;6206334;28;20042;-82
2022/06/07 16:45:07;;;;;;;2.03;1.65;;;;;;;;;;6204657;28;20058;-82
2022/06/07 16:48:09;;;;;;;1.92;1.63;;;;;;;;;;6180954;28;20049;-82
2022/06/07 16:51:11;;;;;;;2.55;2.05;;;;;;;;;;6196740;28;20042;-82
2022/06/07 16:54:14;;;;;;;2.05;1.67;;;;;;;;;;6207502;28;20050;-82
2022/06/07 16:57:19;;;;;;;1.90;1.60;;;;;;;;;;6211406;28;20137;-80
2022/06/07 17:00:21;;;;;;;4.88;1.75;;;;;;;;;;6199984;28;20053;-82
2022/06/07 17:03:23;;;;;;;2.78;1.50;;;;;;;;;;6199775;28;20050;-82
2022/06/07 17:06:25;;;;;;;1.30;1.20;;;;;;;;;;6197258;28;20042;-83
2022/06/07 17:09:26;;;;;;;3.85;1.70;;;;;;;;;;6199959;28;20050;-82
2022/06/07 17:12:28;;;;;;;3.08;1.75;;;;;;;;;;6192010;28;20153;-84
2022/06/07 17:15:30;;;;;;;2.70;2.08;;;;;;;;;;6214418;28;20046;-82
2022/06/07 17:18:32;;;;;;;2.38;2.00;;;;;;;;;;6204448;28;20101;-80
2022/06/07 17:21:34;;;;;;;5.07;2.75;;;;;;;;;;6199251;28;20141;-82
2022/06/07 17:24:36;;;;;;;4.75;2.30;;;;;;;;;;6208006;28;20125;-83
2022/06/07 17:27:38;;;;;;;2.90;2.65;;;;;;;;;;6211141;28;20101;-82
2022/06/07 17:30:39;;;;;;;4.90;3.00;;;;;;;;;;6204315;28;20041;-81
2022/06/07 17:33:41;;;;;;;3.38;3.05;;;;;;;;;;6203377;28;20152;-82
2022/06/07 17:36:43;;;;;;;4.35;2.53;;;;;;;;;;6203715;28;20049;-82
2022/06/07 17:39:45;;;;;;;2.40;2.20;;;;;;;;;;6207283;28;20049;-82
2022/06/07 17:42:47;;;;;;;2.78;1.90;;;;;;;;;;6207803;28;20085;-82
2022/06/07 17:45:48;;;;;;;2.90;1.70;;;;;;;;;;6200395;28;20061;-83
2022/06/07 17:48:51;;;;;;;;;;;;;;;;;;6198842;28;20048;-83
2022/06/07 17:51:53;;;;;;;2.63;1.92;;;;;;;;;;6190929;28;20013;-83
2022/06/07 17:54:54;;;;;;;2.50;1.55;;;;;;;;;;6191071;28;20037;-82
2022/06/07 17:57:57;;;;;;;2.13;1.40;;;;;;;;;;6177038;28;20061;-82
2022/06/07 18:01:07;;;;;;;1.60;1.40;;;;;;;;;;6199202;28;20038;-82
2022/06/07 18:04:09;;;;;;;1.90;1.75;;;;;;;;;;6208647;28;20060;-82
2022/06/07 18:07:11;;;;;;;3.47;2.00;;;;;;;;;;6166237;28;20128;-83
2022/06/07 18:10:12;;;;;;;2.55;2.15;;;;;;;;;;6160882;28;20159;-82
2022/06/07 18:13:16;;;;;;;2.58;1.77;;;;;;;;;;6192406;28;20136;-82
2022/06/07 18:16:18;;;;;;;2.08;1.88;;;;;;;;;;6188927;28;20042;-82
2022/06/07 18:19:20;;;;;;;2.30;2.10;;;;;;;;;;6205160;28;20071;-83
2022/06/07 18:22:24;;;;;;;2.40;1.88;;;;;;;;;;6175018;28;20053;-82
2022/06/07 18:25:31;;;;;;;1.60;1.50;;;;;;;;;;6198020;28;20504;-83
2022/06/07 18:28:33;;;;;;;2.75;1.60;;;;;;;;;;6189410;28;20109;-81
2022/06/07 18:31:38;;;;;;;2.58;2.15;;;;;;;;;;6181466;28;20108;-83
2022/06/07 18:34:46;;;;;;;1.85;1.50;;;;;;;;;;6201588;28;20108;-82
2022/06/07 18:37:48;;;;;;;2.93;1.40;;;;;;;;;;6196681;28;20060;-82
2022/06/07 18:40:53;;;;;;;3.00;1.60;;;;;;;;;;6211717;28;20053;-82
2022/06/07 18:43:55;;;;;;;1.60;1.50;;;;;;;;;;6207200;28;20042;-83
2022/06/07 18:46:59;;;;;;;3.92;2.30;;;;;;;;;;6211947;28;20054;-82
2022/06/07 18:50:01;;;;;;;2.40;2.10;;;;;;;;;;6199375;28;20057;-81
2022/06/07 18:53:06;;;;;;;4.18;1.88;;;;;;;;;;6208138;28;20050;-81
2022/06/07 18:56:10;;;;;;;2.08;1.90;;;;;;;;;;6184464;28;20038;-82
2022/06/07 18:59:11;;;;;;;2.80;2.50;;;;;;;;;;6202429;28;20101;-82
2022/06/07 19:02:18;;;;;;;2.38;2.15;;;;;;;;;;6189628;28;20042;-83
2022/06/07 19:05:24;;;;;;;2.30;2.10;;;;;;;;;;6198068;28;20050;-82
2022/06/07 19:08:25;;;;;;;4.38;2.10;;;;;;;;;;6207643;28;20096;-82
2022/06/07 19:11:34;;;;;;;6.93;1.90;;;;;;;;;;6180672;28;20133;-82
2022/06/07 19:14:35;;;;;;;2.40;2.05;;;;;;;;;;6196929;28;20120;-82
2022/06/07 19:17:37;;;;;;;2.63;2.05;;;;;;;;;;6210230;28;20121;-82
2022/06/07 19:20:40;;;;;;;4.07;2.38;;;;;;;;;;6197048;28;20058;-81